sensor_id;sensor_type;location;lat;lon;timestamp;P1;durP1;ratioP1;P2;durP2;ratioP2
25327;SDS011;13279;51.300;12.394;2022-08-30T00:01:23;7.20;;;4.00;;
25327;SDS011;13279;51.300;12.394;2022-08-30T00:03:51;9.77;;;4.27;;
25327;SDS011;13279;51.300;12.394;2022-08-30T00:06:20;10.97;;;4.00;;
25327;SDS011;13279;51.300;12.394;2022-08-30T00:08:49;9.00;;;4.50;;
25327;SDS011;13279;51.300;12.394;2022-08-30T00:11:18;6.70;;;4.20;;
25327;SDS011;13279;51.300;12.394;2022-08-30T00:13:48;7.77;;;4.93;;
25327;SDS011;13279;51.300;12.394;2022-08-30T00:16:18;7.77;;;4.40;;
25327;SDS011;13279;51.300;12.394;2022-08-30T00:18:48;9.67;;;4.30;;
25327;SDS011;13279;51.300;12.394;2022-08-30T00:21:17;9.47;;;3.60;;
25327;SDS011;13279;51.300;12.394;2022-08-30T00:23:44;8.70;;;4.17;;
25327;SDS011;13279;51.300;12.394;2022-08-30T00:26:12;4.83;;;3.93;;
25327;SDS011;13279;51.300;12.394;2022-08-30T00:28:39;13.07;;;3.97;;
25327;SDS011;13279;51.300;12.394;2022-08-30T00:31:06;4.30;;;3.57;;
25327;SDS011;13279;51.300;12.394;2022-08-30T00:33:35;7.47;;;4.40;;
25327;SDS011;13279;51.300;12.394;2022-08-30T00:36:04;6.23;;;4.17;;
25327;SDS011;13279;51.300;12.394;2022-08-30T00:38:32;9.83;;;4.30;;
25327;SDS011;13279;51.300;12.394;2022-08-30T00:40:59;4.77;;;3.90;;
25327;SDS011;13279;51.300;12.394;2022-08-30T00:43:28;7.70;;;4.23;;
25327;SDS011;13279;51.300;12.394;2022-08-30T00:45:58;7.07;;;4.13;;
25327;SDS011;13279;51.300;12.394;2022-08-30T00:48:29;8.03;;;4.23;;
25327;SDS011;13279;51.300;12.394;2022-08-30T00:50:57;6.53;;;3.80;;
25327;SDS011;13279;51.300;12.394;2022-08-30T00:53:31;6.63;;;3.90;;
25327;SDS011;13279;51.300;12.394;2022-08-30T00:56:02;6.30;;;3.83;;
25327;SDS011;13279;51.300;12.394;2022-08-30T00:58:33;5.40;;;3.90;;
25327;SDS011;13279;51.300;12.394;2022-08-30T01:01:03;6.17;;;4.20;;
25327;SDS011;13279;51.300;12.394;2022-08-30T01:03:32;4.07;;;3.27;;
25327;SDS011;13279;51.300;12.394;2022-08-30T01:06:00;5.83;;;3.83;;
25327;SDS011;13279;51.300;12.394;2022-08-30T01:08:30;9.00;;;5.00;;
25327;SDS011;13279;51.300;12.394;2022-08-30T01:10:57;7.10;;;4.33;;
25327;SDS011;13279;51.300;12.394;2022-08-30T01:13:27;8.00;;;5.60;;
25327;SDS011;13279;51.300;12.394;2022-08-30T01:15:55;9.33;;;5.23;;
25327;SDS011;13279;51.300;12.394;2022-08-30T01:18:24;10.50;;;5.10;;
25327;SDS011;13279;51.300;12.394;2022-08-30T01:20:54;8.53;;;4.20;;
25327;SDS011;13279;51.300;12.394;2022-08-30T01:23:29;10.93;;;5.30;;
25327;SDS011;13279;51.300;12.394;2022-08-30T01:25:59;5.40;;;4.60;;
25327;SDS011;13279;51.300;12.394;2022-08-30T01:28:29;6.23;;;4.73;;
25327;SDS011;13279;51.300;12.394;2022-08-30T01:30:57;10.53;;;5.27;;
25327;SDS011;13279;51.300;12.394;2022-08-30T01:33:26;6.23;;;3.97;;
25327;SDS011;13279;51.300;12.394;2022-08-30T01:35:55;4.87;;;4.13;;
25327;SDS011;13279;51.300;12.394;2022-08-30T01:38:26;6.40;;;3.77;;
25327;SDS011;13279;51.300;12.394;2022-08-30T01:40:58;6.80;;;4.00;;
25327;SDS011;13279;51.300;12.394;2022-08-30T01:43:33;11.10;;;3.93;;
25327;SDS011;13279;51.300;12.394;2022-08-30T01:46:00;6.97;;;4.20;;
25327;SDS011;13279;51.300;12.394;2022-08-30T01:48:27;5.67;;;4.23;;
25327;SDS011;13279;51.300;12.394;2022-08-30T01:50:55;9.17;;;5.30;;
25327;SDS011;13279;51.300;12.394;2022-08-30T01:53:23;9.13;;;4.53;;
25327;SDS011;13279;51.300;12.394;2022-08-30T01:55:50;7.50;;;5.10;;
25327;SDS011;13279;51.300;12.394;2022-08-30T01:58:19;9.07;;;4.50;;
25327;SDS011;13279;51.300;12.394;2022-08-30T02:00:47;6.10;;;4.10;;
25327;SDS011;13279;51.300;12.394;2022-08-30T02:03:15;7.87;;;5.07;;
25327;SDS011;13279;51.300;12.394;2022-08-30T02:05:43;9.80;;;4.67;;
25327;SDS011;13279;51.300;12.394;2022-08-30T02:08:11;12.97;;;5.17;;
25327;SDS011;13279;51.300;12.394;2022-08-30T02:10:38;10.23;;;4.30;;
25327;SDS011;13279;51.300;12.394;2022-08-30T02:13:06;6.97;;;4.70;;
25327;SDS011;13279;51.300;12.394;2022-08-30T02:15:35;7.63;;;4.30;;
25327;SDS011;13279;51.300;12.394;2022-08-30T02:18:02;4.37;;;3.97;;
25327;SDS011;13279;51.300;12.394;2022-08-30T02:20:30;11.23;;;4.90;;
25327;SDS011;13279;51.300;12.394;2022-08-30T02:22:58;8.17;;;5.07;;
25327;SDS011;13279;51.300;12.394;2022-08-30T02:25:25;4.97;;;4.47;;
25327;SDS011;13279;51.300;12.394;2022-08-30T02:27:52;7.40;;;4.83;;
25327;SDS011;13279;51.300;12.394;2022-08-30T02:30:20;8.27;;;4.97;;
25327;SDS011;13279;51.300;12.394;2022-08-30T02:32:49;8.47;;;5.03;;
25327;SDS011;13279;51.300;12.394;2022-08-30T02:35:17;14.93;;;5.53;;
25327;SDS011;13279;51.300;12.394;2022-08-30T02:37:44;10.63;;;5.23;;
25327;SDS011;13279;51.300;12.394;2022-08-30T02:40:12;12.23;;;5.60;;
25327;SDS011;13279;51.300;12.394;2022-08-30T02:42:39;10.67;;;5.00;;
25327;SDS011;13279;51.300;12.394;2022-08-30T02:45:07;6.17;;;4.90;;
25327;SDS011;13279;51.300;12.394;2022-08-30T02:47:35;9.37;;;5.10;;
25327;SDS011;13279;51.300;12.394;2022-08-30T02:50:04;12.87;;;5.40;;
25327;SDS011;13279;51.300;12.394;2022-08-30T02:52:33;7.40;;;4.90;;
25327;SDS011;13279;51.300;12.394;2022-08-30T02:55:00;10.20;;;5.83;;
25327;SDS011;13279;51.300;12.394;2022-08-30T02:57:28;6.80;;;4.93;;
25327;SDS011;13279;51.300;12.394;2022-08-30T02:59:56;6.43;;;5.10;;
25327;SDS011;13279;51.300;12.394;2022-08-30T03:02:24;8.77;;;4.90;;
25327;SDS011;13279;51.300;12.394;2022-08-30T03:04:51;10.00;;;5.20;;
25327;SDS011;13279;51.300;12.394;2022-08-30T03:07:20;6.87;;;4.47;;
25327;SDS011;13279;51.300;12.394;2022-08-30T03:09:48;14.70;;;5.60;;
25327;SDS011;13279;51.300;12.394;2022-08-30T03:12:15;9.33;;;4.83;;
25327;SDS011;13279;51.300;12.394;2022-08-30T03:14:42;8.63;;;5.00;;
25327;SDS011;13279;51.300;12.394;2022-08-30T03:17:10;8.90;;;5.10;;
25327;SDS011;13279;51.300;12.394;2022-08-30T03:19:37;7.97;;;5.10;;
25327;SDS011;13279;51.300;12.394;2022-08-30T03:22:05;8.07;;;5.07;;
25327;SDS011;13279;51.300;12.394;2022-08-30T03:24:34;11.77;;;5.37;;
25327;SDS011;13279;51.300;12.394;2022-08-30T03:27:02;13.70;;;5.73;;
25327;SDS011;13279;51.300;12.394;2022-08-30T03:29:30;11.57;;;5.23;;
25327;SDS011;13279;51.300;12.394;2022-08-30T03:31:57;11.80;;;5.70;;
25327;SDS011;13279;51.300;12.394;2022-08-30T03:34:25;9.13;;;6.03;;
25327;SDS011;13279;51.300;12.394;2022-08-30T03:36:53;10.83;;;5.70;;
25327;SDS011;13279;51.300;12.394;2022-08-30T03:39:23;11.70;;;6.13;;
25327;SDS011;13279;51.300;12.394;2022-08-30T03:41:52;9.70;;;5.60;;
25327;SDS011;13279;51.300;12.394;2022-08-30T03:44:19;11.00;;;5.93;;
25327;SDS011;13279;51.300;12.394;2022-08-30T03:46:47;7.67;;;5.60;;
25327;SDS011;13279;51.300;12.394;2022-08-30T03:49:15;11.40;;;5.90;;
25327;SDS011;13279;51.300;12.394;2022-08-30T03:51:43;9.70;;;6.03;;
25327;SDS011;13279;51.300;12.394;2022-08-30T03:54:11;13.17;;;5.70;;
25327;SDS011;13279;51.300;12.394;2022-08-30T03:56:39;9.67;;;5.77;;
25327;SDS011;13279;51.300;12.394;2022-08-30T03:59:08;14.87;;;5.77;;
25327;SDS011;13279;51.300;12.394;2022-08-30T04:01:36;8.07;;;5.63;;
25327;SDS011;13279;51.300;12.394;2022-08-30T04:04:03;8.63;;;5.63;;
25327;SDS011;13279;51.300;12.394;2022-08-30T04:06:31;11.13;;;5.33;;
25327;SDS011;13279;51.300;12.394;2022-08-30T04:08:58;9.93;;;6.13;;
25327;SDS011;13279;51.300;12.394;2022-08-30T04:11:26;11.57;;;5.83;;
25327;SDS011;13279;51.300;12.394;2022-08-30T04:13:53;10.77;;;5.30;;
25327;SDS011;13279;51.300;12.394;2022-08-30T04:16:23;10.70;;;5.50;;
25327;SDS011;13279;51.300;12.394;2022-08-30T04:18:51;8.07;;;5.77;;
25327;SDS011;13279;51.300;12.394;2022-08-30T04:21:18;10.73;;;6.37;;
25327;SDS011;13279;51.300;12.394;2022-08-30T04:23:45;8.27;;;5.50;;
25327;SDS011;13279;51.300;12.394;2022-08-30T04:26:13;9.63;;;6.37;;
25327;SDS011;13279;51.300;12.394;2022-08-30T04:28:41;14.37;;;6.40;;
25327;SDS011;13279;51.300;12.394;2022-08-30T04:31:08;8.03;;;6.07;;
25327;SDS011;13279;51.300;12.394;2022-08-30T04:33:38;8.17;;;5.83;;
25327;SDS011;13279;51.300;12.394;2022-08-30T04:36:07;8.43;;;5.73;;
25327;SDS011;13279;51.300;12.394;2022-08-30T04:38:38;7.67;;;6.00;;
25327;SDS011;13279;51.300;12.394;2022-08-30T04:41:10;8.13;;;5.00;;
25327;SDS011;13279;51.300;12.394;2022-08-30T04:43:40;7.97;;;6.00;;
25327;SDS011;13279;51.300;12.394;2022-08-30T04:46:08;12.13;;;7.03;;
25327;SDS011;13279;51.300;12.394;2022-08-30T04:48:36;14.73;;;6.60;;
25327;SDS011;13279;51.300;12.394;2022-08-30T04:51:07;13.30;;;7.10;;
25327;SDS011;13279;51.300;12.394;2022-08-30T04:53:36;11.57;;;6.00;;
25327;SDS011;13279;51.300;12.394;2022-08-30T04:56:05;9.53;;;6.53;;
25327;SDS011;13279;51.300;12.394;2022-08-30T04:58:34;13.40;;;6.57;;
25327;SDS011;13279;51.300;12.394;2022-08-30T05:01:01;16.77;;;6.83;;
25327;SDS011;13279;51.300;12.394;2022-08-30T05:03:29;17.67;;;6.40;;
25327;SDS011;13279;51.300;12.394;2022-08-30T05:05:58;16.53;;;6.77;;
25327;SDS011;13279;51.300;12.394;2022-08-30T05:08:26;11.93;;;6.70;;
25327;SDS011;13279;51.300;12.394;2022-08-30T05:10:53;18.50;;;8.23;;
25327;SDS011;13279;51.300;12.394;2022-08-30T05:13:21;15.40;;;7.20;;
25327;SDS011;13279;51.300;12.394;2022-08-30T05:15:49;10.00;;;7.20;;
25327;SDS011;13279;51.300;12.394;2022-08-30T05:18:16;9.57;;;7.37;;
25327;SDS011;13279;51.300;12.394;2022-08-30T05:20:45;12.37;;;7.30;;
25327;SDS011;13279;51.300;12.394;2022-08-30T05:23:13;12.30;;;7.53;;
25327;SDS011;13279;51.300;12.394;2022-08-30T05:25:41;15.30;;;7.53;;
25327;SDS011;13279;51.300;12.394;2022-08-30T05:28:08;15.77;;;7.73;;
25327;SDS011;13279;51.300;12.394;2022-08-30T05:30:36;12.90;;;7.27;;
25327;SDS011;13279;51.300;12.394;2022-08-30T05:33:04;11.00;;;7.40;;
25327;SDS011;13279;51.300;12.394;2022-08-30T05:35:31;14.33;;;7.73;;
25327;SDS011;13279;51.300;12.394;2022-08-30T05:37:58;13.40;;;7.40;;
25327;SDS011;13279;51.300;12.394;2022-08-30T05:40:27;10.33;;;7.33;;
25327;SDS011;13279;51.300;12.394;2022-08-30T05:42:55;15.13;;;7.10;;
25327;SDS011;13279;51.300;12.394;2022-08-30T05:45:22;12.93;;;7.63;;
25327;SDS011;13279;51.300;12.394;2022-08-30T05:47:50;12.47;;;7.13;;
25327;SDS011;13279;51.300;12.394;2022-08-30T05:50:17;16.53;;;7.50;;
25327;SDS011;13279;51.300;12.394;2022-08-30T05:52:45;16.43;;;7.27;;
25327;SDS011;13279;51.300;12.394;2022-08-30T05:55:12;15.83;;;8.07;;
25327;SDS011;13279;51.300;12.394;2022-08-30T05:57:41;11.93;;;7.13;;
25327;SDS011;13279;51.300;12.394;2022-08-30T06:00:10;10.93;;;6.83;;
25327;SDS011;13279;51.300;12.394;2022-08-30T06:02:39;16.30;;;7.00;;
25327;SDS011;13279;51.300;12.394;2022-08-30T06:05:08;12.50;;;7.70;;
25327;SDS011;13279;51.300;12.394;2022-08-30T06:07:36;15.83;;;7.47;;
25327;SDS011;13279;51.300;12.394;2022-08-30T06:10:04;11.40;;;7.27;;
25327;SDS011;13279;51.300;12.394;2022-08-30T06:12:32;13.60;;;8.07;;
25327;SDS011;13279;51.300;12.394;2022-08-30T06:15:01;16.03;;;7.37;;
25327;SDS011;13279;51.300;12.394;2022-08-30T06:17:29;16.40;;;7.27;;
25327;SDS011;13279;51.300;12.394;2022-08-30T06:19:56;12.57;;;7.33;;
25327;SDS011;13279;51.300;12.394;2022-08-30T06:22:23;13.67;;;7.20;;
25327;SDS011;13279;51.300;12.394;2022-08-30T06:24:51;18.07;;;7.93;;
25327;SDS011;13279;51.300;12.394;2022-08-30T06:27:18;15.33;;;7.27;;
25327;SDS011;13279;51.300;12.394;2022-08-30T06:29:49;15.53;;;6.70;;
25327;SDS011;13279;51.300;12.394;2022-08-30T06:32:18;17.17;;;7.07;;
25327;SDS011;13279;51.300;12.394;2022-08-30T06:34:46;14.97;;;7.17;;
25327;SDS011;13279;51.300;12.394;2022-08-30T06:37:13;16.50;;;7.67;;
25327;SDS011;13279;51.300;12.394;2022-08-30T06:39:41;16.03;;;6.93;;
25327;SDS011;13279;51.300;12.394;2022-08-30T06:42:08;12.93;;;6.47;;
25327;SDS011;13279;51.300;12.394;2022-08-30T06:44:36;19.87;;;6.20;;
25327;SDS011;13279;51.300;12.394;2022-08-30T06:47:03;15.40;;;6.57;;
25327;SDS011;13279;51.300;12.394;2022-08-30T06:49:33;17.40;;;6.23;;
25327;SDS011;13279;51.300;12.394;2022-08-30T06:52:00;13.57;;;7.07;;
25327;SDS011;13279;51.300;12.394;2022-08-30T06:54:28;12.37;;;6.33;;
25327;SDS011;13279;51.300;12.394;2022-08-30T06:56:56;16.13;;;6.30;;
25327;SDS011;13279;51.300;12.394;2022-08-30T06:59:23;10.30;;;6.10;;
25327;SDS011;13279;51.300;12.394;2022-08-30T07:01:51;13.67;;;6.37;;
25327;SDS011;13279;51.300;12.394;2022-08-30T07:04:19;14.87;;;7.27;;
25327;SDS011;13279;51.300;12.394;2022-08-30T07:06:48;15.37;;;6.77;;
25327;SDS011;13279;51.300;12.394;2022-08-30T07:09:15;19.13;;;6.97;;
25327;SDS011;13279;51.300;12.394;2022-08-30T07:11:43;20.77;;;6.93;;
25327;SDS011;13279;51.300;12.394;2022-08-30T07:14:11;13.53;;;6.97;;
25327;SDS011;13279;51.300;12.394;2022-08-30T07:16:38;12.47;;;6.67;;
25327;SDS011;13279;51.300;12.394;2022-08-30T07:19:06;15.00;;;7.63;;
25327;SDS011;13279;51.300;12.394;2022-08-30T07:21:33;12.10;;;7.10;;
25327;SDS011;13279;51.300;12.394;2022-08-30T07:24:03;15.27;;;7.30;;
25327;SDS011;13279;51.300;12.394;2022-08-30T07:26:32;12.03;;;7.07;;
25327;SDS011;13279;51.300;12.394;2022-08-30T07:29:01;14.13;;;6.70;;
25327;SDS011;13279;51.300;12.394;2022-08-30T07:31:29;15.77;;;7.40;;
25327;SDS011;13279;51.300;12.394;2022-08-30T07:33:57;15.20;;;7.13;;
25327;SDS011;13279;51.300;12.394;2022-08-30T07:36:25;13.83;;;7.60;;
25327;SDS011;13279;51.300;12.394;2022-08-30T07:38:52;15.67;;;7.43;;
25327;SDS011;13279;51.300;12.394;2022-08-30T07:41:23;13.47;;;7.67;;
25327;SDS011;13279;51.300;12.394;2022-08-30T07:43:51;14.93;;;7.37;;
25327;SDS011;13279;51.300;12.394;2022-08-30T07:46:19;13.23;;;6.97;;
25327;SDS011;13279;51.300;12.394;2022-08-30T07:48:47;16.57;;;8.03;;
25327;SDS011;13279;51.300;12.394;2022-08-30T07:51:16;10.90;;;7.37;;
25327;SDS011;13279;51.300;12.394;2022-08-30T07:53:44;16.23;;;7.60;;
25327;SDS011;13279;51.300;12.394;2022-08-30T07:56:12;12.63;;;6.33;;
25327;SDS011;13279;51.300;12.394;2022-08-30T07:58:41;13.23;;;7.57;;
25327;SDS011;13279;51.300;12.394;2022-08-30T08:01:09;17.00;;;6.73;;
25327;SDS011;13279;51.300;12.394;2022-08-30T08:03:38;14.77;;;7.50;;
25327;SDS011;13279;51.300;12.394;2022-08-30T08:06:07;12.07;;;7.53;;
25327;SDS011;13279;51.300;12.394;2022-08-30T08:08:37;19.00;;;8.63;;
25327;SDS011;13279;51.300;12.394;2022-08-30T08:11:06;11.20;;;6.90;;
25327;SDS011;13279;51.300;12.394;2022-08-30T08:13:34;16.47;;;6.93;;
25327;SDS011;13279;51.300;12.394;2022-08-30T08:16:03;12.13;;;6.40;;
25327;SDS011;13279;51.300;12.394;2022-08-30T08:18:31;17.80;;;6.70;;
25327;SDS011;13279;51.300;12.394;2022-08-30T08:20:58;17.33;;;6.63;;
25327;SDS011;13279;51.300;12.394;2022-08-30T08:23:27;15.60;;;7.27;;
25327;SDS011;13279;51.300;12.394;2022-08-30T08:25:55;13.93;;;6.93;;
25327;SDS011;13279;51.300;12.394;2022-08-30T08:28:22;16.33;;;7.67;;
25327;SDS011;13279;51.300;12.394;2022-08-30T08:30:50;15.77;;;7.77;;
25327;SDS011;13279;51.300;12.394;2022-08-30T08:33:21;12.70;;;6.93;;
25327;SDS011;13279;51.300;12.394;2022-08-30T08:35:49;13.10;;;6.50;;
25327;SDS011;13279;51.300;12.394;2022-08-30T08:38:16;14.07;;;6.13;;
25327;SDS011;13279;51.300;12.394;2022-08-30T08:40:46;11.47;;;5.73;;
25327;SDS011;13279;51.300;12.394;2022-08-30T08:43:22;10.67;;;6.10;;
25327;SDS011;13279;51.300;12.394;2022-08-30T08:45:53;14.17;;;6.17;;
25327;SDS011;13279;51.300;12.394;2022-08-30T08:48:27;13.43;;;5.63;;
25327;SDS011;13279;51.300;12.394;2022-08-30T08:50:58;10.37;;;5.13;;
25327;SDS011;13279;51.300;12.394;2022-08-30T08:53:47;8.97;;;4.87;;
25327;SDS011;13279;51.300;12.394;2022-08-30T08:56:21;8.30;;;4.20;;
25327;SDS011;13279;51.300;12.394;2022-08-30T08:58:49;7.37;;;4.30;;
25327;SDS011;13279;51.300;12.394;2022-08-30T09:01:19;8.23;;;3.57;;
25327;SDS011;13279;51.300;12.394;2022-08-30T09:03:50;7.40;;;3.33;;
25327;SDS011;13279;51.300;12.394;2022-08-30T09:06:22;7.00;;;3.90;;
25327;SDS011;13279;51.300;12.394;2022-08-30T09:08:58;7.10;;;3.50;;
25327;SDS011;13279;51.300;12.394;2022-08-30T09:11:26;7.83;;;3.17;;
25327;SDS011;13279;51.300;12.394;2022-08-30T09:13:57;8.10;;;3.63;;
25327;SDS011;13279;51.300;12.394;2022-08-30T09:16:44;13.93;;;3.60;;
25327;SDS011;13279;51.300;12.394;2022-08-30T09:19:27;7.23;;;3.97;;
25327;SDS011;13279;51.300;12.394;2022-08-30T09:21:58;4.77;;;3.67;;
25327;SDS011;13279;51.300;12.394;2022-08-30T09:24:35;6.87;;;4.13;;
25327;SDS011;13279;51.300;12.394;2022-08-30T09:27:15;11.53;;;4.33;;
25327;SDS011;13279;51.300;12.394;2022-08-30T09:29:49;7.77;;;4.77;;
25327;SDS011;13279;51.300;12.394;2022-08-30T09:32:23;11.40;;;4.20;;
25327;SDS011;13279;51.300;12.394;2022-08-30T09:34:54;6.13;;;3.10;;
25327;SDS011;13279;51.300;12.394;2022-08-30T09:37:22;4.23;;;3.10;;
25327;SDS011;13279;51.300;12.394;2022-08-30T09:39:53;7.40;;;3.53;;
25327;SDS011;13279;51.300;12.394;2022-08-30T09:42:21;8.30;;;3.77;;
25327;SDS011;13279;51.300;12.394;2022-08-30T09:44:50;3.77;;;2.97;;
25327;SDS011;13279;51.300;12.394;2022-08-30T09:47:35;7.70;;;3.17;;
25327;SDS011;13279;51.300;12.394;2022-08-30T09:50:06;8.53;;;2.97;;
25327;SDS011;13279;51.300;12.394;2022-08-30T09:55:31;6.60;;;3.53;;
25327;SDS011;13279;51.300;12.394;2022-08-30T09:58:17;6.13;;;3.17;;
25327;SDS011;13279;51.300;12.394;2022-08-30T10:00:57;6.83;;;3.40;;
25327;SDS011;13279;51.300;12.394;2022-08-30T10:03:36;6.23;;;3.50;;
25327;SDS011;13279;51.300;12.394;2022-08-30T10:06:11;7.40;;;3.40;;
25327;SDS011;13279;51.300;12.394;2022-08-30T10:08:49;5.50;;;2.87;;
25327;SDS011;13279;51.300;12.394;2022-08-30T10:11:27;6.63;;;3.43;;
25327;SDS011;13279;51.300;12.394;2022-08-30T10:16:59;7.73;;;2.97;;
25327;SDS011;13279;51.300;12.394;2022-08-30T10:19:37;4.47;;;2.63;;
25327;SDS011;13279;51.300;12.394;2022-08-30T10:22:18;3.10;;;2.80;;
25327;SDS011;13279;51.300;12.394;2022-08-30T10:24:50;7.15;;;3.35;;
25327;SDS011;13279;51.300;12.394;2022-08-30T10:27:25;5.57;;;3.28;;
25327;SDS011;13279;51.300;12.394;2022-08-30T10:30:00;6.93;;;3.30;;
25327;SDS011;13279;51.300;12.394;2022-08-30T10:32:32;8.50;;;3.37;;
25327;SDS011;13279;51.300;12.394;2022-08-30T10:35:03;9.10;;;3.30;;
25327;SDS011;13279;51.300;12.394;2022-08-30T10:37:37;6.53;;;3.30;;
25327;SDS011;13279;51.300;12.394;2022-08-30T10:40:10;6.83;;;2.97;;
25327;SDS011;13279;51.300;12.394;2022-08-30T10:42:59;6.10;;;3.90;;
25327;SDS011;13279;51.300;12.394;2022-08-30T10:45:32;5.63;;;2.97;;
25327;SDS011;13279;51.300;12.394;2022-08-30T10:48:04;8.43;;;3.00;;
25327;SDS011;13279;51.300;12.394;2022-08-30T10:50:40;9.13;;;3.60;;
25327;SDS011;13279;51.300;12.394;2022-08-30T10:53:14;4.93;;;3.03;;
25327;SDS011;13279;51.300;12.394;2022-08-30T10:55:46;9.57;;;3.03;;
25327;SDS011;13279;51.300;12.394;2022-08-30T10:58:17;5.73;;;3.10;;
25327;SDS011;13279;51.300;12.394;2022-08-30T11:00:49;4.60;;;3.40;;
25327;SDS011;13279;51.300;12.394;2022-08-30T11:06:33;12.47;;;4.57;;
25327;SDS011;13279;51.300;12.394;2022-08-30T11:09:19;5.47;;;3.63;;
25327;SDS011;13279;51.300;12.394;2022-08-30T11:12:19;5.37;;;3.73;;
25327;SDS011;13279;51.300;12.394;2022-08-30T11:14:53;6.03;;;4.40;;
25327;SDS011;13279;51.300;12.394;2022-08-30T11:17:23;12.27;;;4.10;;
25327;SDS011;13279;51.300;12.394;2022-08-30T11:19:53;6.17;;;3.60;;
25327;SDS011;13279;51.300;12.394;2022-08-30T11:22:26;7.13;;;3.57;;
25327;SDS011;13279;51.300;12.394;2022-08-30T11:25:05;5.67;;;3.23;;
25327;SDS011;13279;51.300;12.394;2022-08-30T11:27:39;7.67;;;3.70;;
25327;SDS011;13279;51.300;12.394;2022-08-30T11:33:41;12.87;;;3.20;;
25327;SDS011;13279;51.300;12.394;2022-08-30T11:36:11;3.47;;;3.00;;
25327;SDS011;13279;51.300;12.394;2022-08-30T11:39:02;6.23;;;3.60;;
25327;SDS011;13279;51.300;12.394;2022-08-30T11:41:35;6.03;;;2.80;;
25327;SDS011;13279;51.300;12.394;2022-08-30T11:46:56;9.27;;;3.27;;
25327;SDS011;13279;51.300;12.394;2022-08-30T11:52:29;7.93;;;2.80;;
25327;SDS011;13279;51.300;12.394;2022-08-30T11:55:17;8.93;;;3.00;;
25327;SDS011;13279;51.300;12.394;2022-08-30T11:58:15;4.80;;;3.00;;
25327;SDS011;13279;51.300;12.394;2022-08-30T12:03:54;8.23;;;3.43;;
25327;SDS011;13279;51.300;12.394;2022-08-30T12:06:47;5.50;;;2.90;;
25327;SDS011;13279;51.300;12.394;2022-08-30T12:12:44;8.27;;;2.60;;
25327;SDS011;13279;51.300;12.394;2022-08-30T12:18:23;4.23;;;3.00;;
25327;SDS011;13279;51.300;12.394;2022-08-30T12:20:53;7.23;;;3.37;;
25327;SDS011;13279;51.300;12.394;2022-08-30T12:23:26;6.13;;;3.20;;
25327;SDS011;13279;51.300;12.394;2022-08-30T12:26:11;6.30;;;3.60;;
25327;SDS011;13279;51.300;12.394;2022-08-30T12:28:41;5.53;;;3.70;;
25327;SDS011;13279;51.300;12.394;2022-08-30T12:31:13;5.73;;;3.77;;
25327;SDS011;13279;51.300;12.394;2022-08-30T12:33:44;5.23;;;3.60;;
25327;SDS011;13279;51.300;12.394;2022-08-30T12:36:14;8.40;;;3.40;;
25327;SDS011;13279;51.300;12.394;2022-08-30T12:39:04;6.70;;;3.77;;
25327;SDS011;13279;51.300;12.394;2022-08-30T12:41:33;7.07;;;3.40;;
25327;SDS011;13279;51.300;12.394;2022-08-30T12:44:01;10.67;;;3.73;;
25327;SDS011;13279;51.300;12.394;2022-08-30T12:46:31;10.83;;;3.30;;
25327;SDS011;13279;51.300;12.394;2022-08-30T12:48:59;5.37;;;3.30;;
25327;SDS011;13279;51.300;12.394;2022-08-30T12:51:28;5.40;;;3.27;;
25327;SDS011;13279;51.300;12.394;2022-08-30T12:54:06;5.20;;;3.17;;
25327;SDS011;13279;51.300;12.394;2022-08-30T12:56:46;6.40;;;2.77;;
25327;SDS011;13279;51.300;12.394;2022-08-30T13:02:19;3.43;;;3.07;;
25327;SDS011;13279;51.300;12.394;2022-08-30T13:04:48;5.13;;;2.97;;
25327;SDS011;13279;51.300;12.394;2022-08-30T13:07:28;3.87;;;3.13;;
25327;SDS011;13279;51.300;12.394;2022-08-30T13:09:59;4.20;;;2.83;;
25327;SDS011;13279;51.300;12.394;2022-08-30T13:12:56;8.77;;;3.33;;
25327;SDS011;13279;51.300;12.394;2022-08-30T13:15:29;5.03;;;3.37;;
25327;SDS011;13279;51.300;12.394;2022-08-30T13:18:15;6.77;;;3.33;;
25327;SDS011;13279;51.300;12.394;2022-08-30T13:20:45;5.20;;;3.20;;
25327;SDS011;13279;51.300;12.394;2022-08-30T13:23:20;8.33;;;3.63;;
25327;SDS011;13279;51.300;12.394;2022-08-30T13:25:49;8.50;;;3.10;;
25327;SDS011;13279;51.300;12.394;2022-08-30T13:28:16;3.33;;;3.00;;
25327;SDS011;13279;51.300;12.394;2022-08-30T13:30:45;3.27;;;3.00;;
25327;SDS011;13279;51.300;12.394;2022-08-30T13:33:13;3.90;;;3.60;;
25327;SDS011;13279;51.300;12.394;2022-08-30T13:35:43;7.37;;;3.40;;
25327;SDS011;13279;51.300;12.394;2022-08-30T13:38:11;7.57;;;3.40;;
25327;SDS011;13279;51.300;12.394;2022-08-30T13:40:38;3.07;;;2.73;;
25327;SDS011;13279;51.300;12.394;2022-08-30T13:43:05;6.77;;;3.20;;
25327;SDS011;13279;51.300;12.394;2022-08-30T13:45:33;6.10;;;3.17;;
25327;SDS011;13279;51.300;12.394;2022-08-30T13:48:00;5.97;;;3.27;;
25327;SDS011;13279;51.300;12.394;2022-08-30T13:50:30;3.53;;;3.23;;
25327;SDS011;13279;51.300;12.394;2022-08-30T13:52:57;6.40;;;3.10;;
25327;SDS011;13279;51.300;12.394;2022-08-30T13:55:25;9.00;;;3.00;;
25327;SDS011;13279;51.300;12.394;2022-08-30T13:57:52;8.23;;;3.40;;
25327;SDS011;13279;51.300;12.394;2022-08-30T14:00:20;3.90;;;3.50;;
25327;SDS011;13279;51.300;12.394;2022-08-30T14:02:49;6.73;;;3.23;;
25327;SDS011;13279;51.300;12.394;2022-08-30T14:05:20;8.63;;;3.80;;
25327;SDS011;13279;51.300;12.394;2022-08-30T14:07:49;5.97;;;3.33;;
25327;SDS011;13279;51.300;12.394;2022-08-30T14:10:17;5.53;;;3.90;;
25327;SDS011;13279;51.300;12.394;2022-08-30T14:12:46;12.00;;;3.87;;
25327;SDS011;13279;51.300;12.394;2022-08-30T14:15:14;5.83;;;3.50;;
25327;SDS011;13279;51.300;12.394;2022-08-30T14:17:41;6.57;;;3.57;;
25327;SDS011;13279;51.300;12.394;2022-08-30T14:20:09;4.22;;;3.83;;
25327;SDS011;13279;51.300;12.394;2022-08-30T14:22:37;7.40;;;3.60;;
25327;SDS011;13279;51.300;12.394;2022-08-30T14:25:07;6.17;;;3.37;;
25327;SDS011;13279;51.300;12.394;2022-08-30T14:27:35;4.30;;;2.87;;
25327;SDS011;13279;51.300;12.394;2022-08-30T14:30:02;6.37;;;3.23;;
25327;SDS011;13279;51.300;12.394;2022-08-30T14:32:31;5.60;;;2.97;;
25327;SDS011;13279;51.300;12.394;2022-08-30T14:34:59;6.33;;;3.20;;
25327;SDS011;13279;51.300;12.394;2022-08-30T14:37:26;3.70;;;3.30;;
25327;SDS011;13279;51.300;12.394;2022-08-30T14:39:54;4.43;;;3.37;;
25327;SDS011;13279;51.300;12.394;2022-08-30T14:42:23;8.90;;;3.43;;
25327;SDS011;13279;51.300;12.394;2022-08-30T14:44:50;6.40;;;3.23;;
25327;SDS011;13279;51.300;12.394;2022-08-30T14:47:18;9.27;;;3.45;;
25327;SDS011;13279;51.300;12.394;2022-08-30T14:49:45;3.90;;;3.00;;
25327;SDS011;13279;51.300;12.394;2022-08-30T14:52:12;7.67;;;4.27;;
25327;SDS011;13279;51.300;12.394;2022-08-30T14:54:40;6.87;;;3.37;;
25327;SDS011;13279;51.300;12.394;2022-08-30T14:57:07;6.93;;;3.30;;
25327;SDS011;13279;51.300;12.394;2022-08-30T14:59:37;6.63;;;3.77;;
25327;SDS011;13279;51.300;12.394;2022-08-30T15:02:04;4.37;;;3.30;;
25327;SDS011;13279;51.300;12.394;2022-08-30T15:04:31;5.73;;;3.30;;
25327;SDS011;13279;51.300;12.394;2022-08-30T15:06:59;3.80;;;2.90;;
25327;SDS011;13279;51.300;12.394;2022-08-30T15:09:26;3.23;;;2.90;;
25327;SDS011;13279;51.300;12.394;2022-08-30T15:11:55;7.40;;;3.10;;
25327;SDS011;13279;51.300;12.394;2022-08-30T15:14:26;5.17;;;3.43;;
25327;SDS011;13279;51.300;12.394;2022-08-30T15:16:55;4.80;;;3.30;;